South Bend, IN (46628)

8:35 PM EDT on April 30, 2017 (GMT -0400)
Westhaven | | Change Station
Active Advisory: Flash Flood Watch Active Notice: Flash Flood Watch

Elev 745 ft 41.69 °N, 86.31 °W | Updated 6 seconds ago

Rain
Rain
63.0 °F
Feels Like 63.0 °F
N
0.0
Wind Variable Wind from North
Gusts 0.0 mph

Today
High -- | Low -- °F
--% Chance of Precip.
Yesterday
High -- | Low -- °F
Precip. -- in
Pressure 29.73 in
Visibility 3.0 miles
Clouds Mostly Cloudy 400 ft
Overcast 800 ft
Dew Point 60 °F
Humidity 91%
Rainfall 0.60 in
Snow Depth Not available.
6:42 AM 8:42 PM
Waxing Crescent, 27% visible
METAR KSBN 302354Z 03004KT 3SM BR BKN004 OVC008 16/16 A2973 RMK AO2 RAB2259E54 CIG 002V006 SLP068 P0003 60009 T01560156 10200 20156 58007 $
Pressure 29.73 in
Visibility 3.0 miles
Clouds Mostly Cloudy 400 ft
Overcast 800 ft
Dew Point 60 °F
Humidity 91%
Rainfall 0.60 in
Snow Depth Not available.
6:42 AM 8:42 PM
Waxing Crescent, 27% visible
METAR KSBN 302354Z 03004KT 3SM BR BKN004 OVC008 16/16 A2973 RMK AO2 RAB2259E54 CIG 002V006 SLP068 P0003 60009 T01560156 10200 20156 58007 $

Get Your Daily Forecast Email!

Thanks for signing up!

Be on the lookout for a verification email in your inbox.

You'll start receiving severe weather alerts in your inbox..

×

10-Day Weather Forecast

Almanac

Astronomy

Apr. 30, 2017 Rise Set
Actual Time
Civil Twilight
Nautical Twilight
Astronomical Twilight
Moon
Length of Visible Light
Length of Day
Tomorrow will be .
, % of the Moon is Illuminated

Today's Extremes

State Highs State Lows

Community

WunderPhotos

WunderBlog® & News

Nearby

Air Quality

  Air Quality AQ Index Pollutant
Not available.

Snow Depth

Station Depth Elevation

Earthquake Activity

City Distance Mag. Time & Date
Minimum magnitude displayed is 2.5.

Coastal Water Temperatures

Place Temperature

Stations

Nearby Weather Stations

Station Location Temp. Windchill Dew Point Humidity Wind Precip. Elev Updated Type
                   

Watches & Warnings

Flash Flood Watch
Issued: 2:10 PM CDT Apr. 30, 2017 – National Weather Service

... Flash Flood Watch remains in effect through Monday morning...

The Flash Flood Watch continues for

* portions of northern Indiana and southwest Michigan, including
the following areas, in northern Indiana, La Porte, St. Joseph
in, and Starke. In southwest Michigan, Berrien and Cass mi.

* Through Monday morning

* periods of heavy rainfall are expected late this afternoon into
tonight. Additional rainfall amounts in excess of an inch will
be possible.

* Rainfall may be heavy enough to cause flooding of streets, low
lying areas, and streams. River flooding may also develop by
Monday and continue until late in the week.

Precautionary/preparedness actions...

A Flash Flood Watch means that conditions may develop that lead
to flash flooding. Flash flooding is a very dangerous situation.

You should monitor later forecasts and be prepared to take action
should flash flood warnings be issued.